createdAt,value
2017-02-16T00:00:33.589Z,47.58
2017-02-16T00:01:42.608Z,47.23
2017-02-16T00:02:51.617Z,47.13
2017-02-16T00:04:00.624Z,47.11
2017-02-16T00:05:09.759Z,47.68
2017-02-16T00:06:18.837Z,47.3
2017-02-16T00:07:27.822Z,47.2
2017-02-16T00:08:36.823Z,47.11
2017-02-16T00:09:45.902Z,47.49
2017-02-16T00:10:54.902Z,47.3
2017-02-16T00:12:03.927Z,47.58
2017-02-16T00:13:13.091Z,47.58
2017-02-16T00:14:22.295Z,47.39
2017-02-16T00:15:31.293Z,47.58
2017-02-16T00:16:40.290Z,47.77
2017-02-16T00:17:49.358Z,47.58
2017-02-16T00:18:58.341Z,47.87
2017-02-16T00:20:07.342Z,47.58
2017-02-16T00:21:16.541Z,47.87
2017-02-16T00:22:25.612Z,47.68
2017-02-16T00:23:34.701Z,47.58
2017-02-16T00:24:43.773Z,48.06
2017-02-16T00:25:53.184Z,48.06
2017-02-16T00:27:02.224Z,48.06
2017-02-16T00:28:11.634Z,47.87
2017-02-16T00:29:20.625Z,48.16
2017-02-16T00:30:29.790Z,48.16
2017-02-16T00:31:38.806Z,48.25
2017-02-16T00:32:48.331Z,48.25
2017-02-16T00:33:57.319Z,48.54
2017-02-16T00:35:06.478Z,48.44
2017-02-16T00:36:15.892Z,48.54
2017-02-16T00:37:24.909Z,48.54
2017-02-16T00:38:33.914Z,48.54
2017-02-16T00:39:42.925Z,48.54
2017-02-16T00:40:52.031Z,48.44
2017-02-16T00:42:01.024Z,48.54
2017-02-16T00:43:10.018Z,48.63
2017-02-16T00:44:19.004Z,48.35
2017-02-16T00:45:28.089Z,48.72
2017-02-16T00:46:37.082Z,49.1
2017-02-16T00:47:46.141Z,48.82
2017-02-16T00:48:55.156Z,48.82
2017-02-16T00:50:04.358Z,49.1
2017-02-16T00:51:13.345Z,48.91
2017-02-16T00:52:22.425Z,48.91
2017-02-16T00:53:31.439Z,48.91
2017-02-16T00:54:40.443Z,48.63
2017-02-16T00:55:49.438Z,49.1
2017-02-16T00:56:58.432Z,48.82
2017-02-16T00:58:07.421Z,49.01
2017-02-16T00:59:16.592Z,49.2
2017-02-16T01:00:25.667Z,49.49
2017-02-16T01:01:34.665Z,49.2
2017-02-16T01:02:43.751Z,49.2
2017-02-16T01:03:52.895Z,49.39
2017-02-16T01:05:01.988Z,49.39
2017-02-16T01:06:11.084Z,49.29
2017-02-16T01:07:20.098Z,49.68
2017-02-16T01:08:29.362Z,49.49
2017-02-16T01:09:38.355Z,49.49
2017-02-16T01:10:47.356Z,49.29
2017-02-16T01:11:56.526Z,49.39
2017-02-16T01:13:05.531Z,49.49
2017-02-16T01:14:14.512Z,49.96
2017-02-16T01:15:23.510Z,49.96
2017-02-16T01:16:32.516Z,50.05
2017-02-16T01:17:41.516Z,50.05
2017-02-16T01:18:50.525Z,49.68
2017-02-16T01:19:59.773Z,49.77
2017-02-16T01:21:08.771Z,49.68
2017-02-16T01:22:17.863Z,49.77
2017-02-16T01:23:26.859Z,49.77
2017-02-16T01:24:35.842Z,49.77
2017-02-16T01:25:44.912Z,49.68
2017-02-16T01:26:53.927Z,50.05
2017-02-16T01:28:03.316Z,49.87
2017-02-16T01:29:12.321Z,49.87
2017-02-16T01:30:21.302Z,50.15
2017-02-16T01:31:30.369Z,50.62
2017-02-16T01:32:39.388Z,50.53
2017-02-16T01:33:48.400Z,50.53
2017-02-16T01:34:57.805Z,50.53
2017-02-16T01:36:06.810Z,50.43
2017-02-16T01:37:15.842Z,50.51
2017-02-16T01:38:24.938Z,50.53
2017-02-16T01:39:33.919Z,50.62
2017-02-16T01:40:42.915Z,50.43
2017-02-16T01:41:51.959Z,50.34
2017-02-16T01:43:01.031Z,50.81
2017-02-16T01:44:10.014Z,50.51
2017-02-16T01:45:19.026Z,50.72
2017-02-16T01:46:28.025Z,50.79
2017-02-16T01:47:37.010Z,50.7
2017-02-16T01:48:45.997Z,50.7
2017-02-16T01:49:54.997Z,50.89
2017-02-16T01:51:04.075Z,50.79
2017-02-16T01:52:13.055Z,50.79
2017-02-16T01:53:22.054Z,51.26
2017-02-16T01:54:31.039Z,51.17
2017-02-16T01:55:40.062Z,51.17
2017-02-16T01:56:49.037Z,50.89
2017-02-16T01:57:58.032Z,51.17
2017-02-16T01:59:07.026Z,51.17
2017-02-16T02:00:16.026Z,50.98
2017-02-16T02:01:25.039Z,51.36
2017-02-16T02:02:34.018Z,51.36
2017-02-16T02:03:43.012Z,51.26
2017-02-16T02:04:51.995Z,51.36
2017-02-16T02:06:01.030Z,51.17
2017-02-16T02:07:10.018Z,51.93
2017-02-16T02:08:19.090Z,51.36
2017-02-16T02:09:28.189Z,51.36
2017-02-16T02:10:37.230Z,51.93
2017-02-16T02:11:46.226Z,51.83
2017-02-16T02:12:55.230Z,52.02
2017-02-16T02:14:04.224Z,51.83
2017-02-16T02:15:13.343Z,51.55
2017-02-16T02:16:22.344Z,51.64
2017-02-16T02:17:31.341Z,51.83
2017-02-16T02:18:40.336Z,51.83
2017-02-16T02:19:49.765Z,51.45
2017-02-16T02:20:58.759Z,51.55
2017-02-16T02:22:07.753Z,51.83
2017-02-16T02:23:16.822Z,52.12
2017-02-16T02:24:25.900Z,52.02
2017-02-16T02:25:34.918Z,51.93
2017-02-16T02:26:43.992Z,52.12
2017-02-16T02:27:52.987Z,52.22
2017-02-16T02:29:01.978Z,52.31
2017-02-16T02:30:10.966Z,52.22
2017-02-16T02:31:19.962Z,52.78
2017-02-16T02:32:28.945Z,52.78
2017-02-16T02:33:37.933Z,52.59
2017-02-16T02:34:47.404Z,52.69
2017-02-16T02:35:56.896Z,52.5
2017-02-16T02:37:05.904Z,52.78
2017-02-16T02:38:15.316Z,52.5
2017-02-16T02:39:24.321Z,52.97
2017-02-16T02:40:33.735Z,52.97
2017-02-16T02:41:42.738Z,52.97
2017-02-16T02:42:51.817Z,53.07
2017-02-16T02:44:00.902Z,52.87
2017-02-16T02:45:12.799Z,53.16
2017-02-16T02:46:23.819Z,53.07
2017-02-16T02:47:33.239Z,52.69
2017-02-16T02:48:42.319Z,52.78
2017-02-16T02:49:51.302Z,52.69
2017-02-16T02:51:00.326Z,52.78
2017-02-16T02:52:09.320Z,53.07
2017-02-16T02:53:18.330Z,53.33
2017-02-16T02:54:27.752Z,53.52
2017-02-16T02:55:36.747Z,53.14
2017-02-16T02:56:46.138Z,53.33
2017-02-16T02:57:55.500Z,53.7
2017-02-16T02:59:04.725Z,53.45
2017-02-16T03:00:13.709Z,53.52
2017-02-16T03:01:22.700Z,53.52
2017-02-16T03:02:31.702Z,53.16
2017-02-16T03:03:40.692Z,53.61
2017-02-16T03:04:49.673Z,53.33
2017-02-16T03:05:58.660Z,53.23
2017-02-16T03:07:07.643Z,53.33
2017-02-16T03:08:16.631Z,53.33
2017-02-16T03:09:25.616Z,53.42
2017-02-16T03:10:34.600Z,53.52
2017-02-16T03:11:43.710Z,53.54
2017-02-16T03:12:52.697Z,53.89
2017-02-16T03:14:01.693Z,53.52
2017-02-16T03:15:10.680Z,53.7
2017-02-16T03:16:19.713Z,53.61
2017-02-16T03:17:28.789Z,53.8
2017-02-16T03:18:37.963Z,53.8
2017-02-16T03:19:46.956Z,53.61
2017-02-16T03:20:55.948Z,54.08
2017-02-16T03:22:04.929Z,54.27
2017-02-16T03:23:13.923Z,54.27
2017-02-16T03:24:22.911Z,54.08
2017-02-16T03:25:31.893Z,54.08
2017-02-16T03:26:40.879Z,53.99
2017-02-16T03:27:49.890Z,54.08
2017-02-16T03:28:58.874Z,54.08
2017-02-16T03:30:07.973Z,54.18
2017-02-16T03:31:16.965Z,53.99
2017-02-16T03:32:26.044Z,54.46
2017-02-16T03:33:35.128Z,54.46
2017-02-16T03:34:44.120Z,54.37
2017-02-16T03:35:53.113Z,54.46
2017-02-16T03:37:02.294Z,54.27
2017-02-16T03:38:11.283Z,54.75
2017-02-16T03:39:20.270Z,54.85
2017-02-16T03:40:29.251Z,54.27
2017-02-16T03:41:38.228Z,54.27
2017-02-16T03:42:47.217Z,54.94
2017-02-16T03:43:56.199Z,54.85
2017-02-16T03:45:05.192Z,54.85
2017-02-16T03:46:14.267Z,54.75
2017-02-16T03:47:23.280Z,54.75
2017-02-16T03:48:32.274Z,54.85
2017-02-16T03:49:41.253Z,54.56
2017-02-16T03:50:50.228Z,54.56
2017-02-16T03:51:59.225Z,54.94
2017-02-16T03:53:08.246Z,55.22
2017-02-16T03:54:17.236Z,54.94
2017-02-16T03:55:26.664Z,55.04
2017-02-16T03:56:35.657Z,55.13
2017-02-16T03:57:44.730Z,55.04
2017-02-16T03:58:54.142Z,55.04
2017-02-16T04:00:03.130Z,55.22
2017-02-16T04:01:12.129Z,54.94
2017-02-16T04:02:21.137Z,55.13
2017-02-16T04:03:30.222Z,55.13
2017-02-16T04:04:39.299Z,54.85
2017-02-16T04:05:48.301Z,55.22
2017-02-16T04:06:57.322Z,55.13
2017-02-16T04:08:06.320Z,55.41
2017-02-16T04:09:15.300Z,55.32
2017-02-16T04:10:24.303Z,55.32
2017-02-16T04:11:33.299Z,55.32
2017-02-16T04:12:42.306Z,55.22
2017-02-16T04:13:51.300Z,55.51
2017-02-16T04:15:00.328Z,55.51
2017-02-16T04:16:09.433Z,55.22
2017-02-16T04:17:18.440Z,55.51
2017-02-16T04:18:27.418Z,55.51
2017-02-16T04:19:36.433Z,55.41
2017-02-16T04:20:45.426Z,55.6
2017-02-16T04:21:54.502Z,55.6
2017-02-16T04:23:03.505Z,56.17
2017-02-16T04:24:12.495Z,56.17
2017-02-16T04:25:21.470Z,56.17
2017-02-16T04:26:30.467Z,55.98
2017-02-16T04:27:39.462Z,55.98
2017-02-16T04:28:48.447Z,55.89
2017-02-16T04:29:57.460Z,55.98
2017-02-16T04:31:06.443Z,55.79
2017-02-16T04:32:15.438Z,55.7
2017-02-16T04:33:24.441Z,55.79
2017-02-16T04:34:33.452Z,55.79
2017-02-16T04:35:42.458Z,55.6
2017-02-16T04:36:51.462Z,56.08
2017-02-16T04:38:00.461Z,56.17
2017-02-16T04:39:09.445Z,56.55
2017-02-16T04:40:18.427Z,56.55
2017-02-16T04:41:27.433Z,56.17
2017-02-16T04:42:36.836Z,56.17
2017-02-16T04:43:45.813Z,56.17
2017-02-16T04:44:55.292Z,56.36
2017-02-16T04:46:04.285Z,56.36
2017-02-16T04:47:13.276Z,56.36
2017-02-16T04:48:22.291Z,56.27
2017-02-16T04:49:31.265Z,56.17
2017-02-16T04:50:40.256Z,56.08
2017-02-16T04:51:49.245Z,56.36
2017-02-16T04:52:58.316Z,56.36
2017-02-16T04:54:07.309Z,56.84
2017-02-16T04:55:16.298Z,56.93
2017-02-16T04:56:25.293Z,56.84
2017-02-16T04:57:34.410Z,56.55
2017-02-16T04:58:43.506Z,56.93
2017-02-16T04:59:52.632Z,56.84
2017-02-16T05:01:01.641Z,56.84
2017-02-16T05:02:11.029Z,56.84
2017-02-16T05:03:20.035Z,56.84
2017-02-16T05:04:29.029Z,56.74
2017-02-16T05:05:38.050Z,56.55
2017-02-16T05:06:47.459Z,56.74
2017-02-16T05:07:56.457Z,57.12
2017-02-16T05:09:05.466Z,57.21
2017-02-16T05:10:14.467Z,57.03
2017-02-16T05:11:23.544Z,57.12
2017-02-16T05:12:32.629Z,57.21
2017-02-16T05:13:41.622Z,57.4
2017-02-16T05:14:51.035Z,57.4
2017-02-16T05:16:00.117Z,57.4
2017-02-16T05:17:09.150Z,57.4
2017-02-16T05:18:18.145Z,57.31
2017-02-16T05:19:27.130Z,57.4
2017-02-16T05:20:36.121Z,57.21
2017-02-16T05:21:45.206Z,57.31
2017-02-16T05:22:54.193Z,57.21
2017-02-16T05:24:03.201Z,57.4
2017-02-16T05:25:12.268Z,57.21
2017-02-16T05:26:21.665Z,57.31
2017-02-16T05:27:30.643Z,57.4
2017-02-16T05:28:39.636Z,57.21
2017-02-16T05:29:48.628Z,57.5
2017-02-16T05:30:57.649Z,57.31
2017-02-16T05:32:06.629Z,57.5
2017-02-16T05:33:15.748Z,57.31
2017-02-16T05:34:24.736Z,57.88
2017-02-16T05:35:33.715Z,57.59
2017-02-16T05:36:42.717Z,58.07
2017-02-16T05:37:51.712Z,57.88
2017-02-16T05:39:00.705Z,57.88
2017-02-16T05:40:09.685Z,57.88
2017-02-16T05:41:18.789Z,58.07
2017-02-16T05:42:27.791Z,57.98
2017-02-16T05:43:36.776Z,58.17
2017-02-16T05:44:46.272Z,57.88
2017-02-16T05:45:55.250Z,58.07
2017-02-16T05:47:04.254Z,58.17
2017-02-16T05:48:13.345Z,58.07
2017-02-16T05:49:22.349Z,57.88
2017-02-16T05:50:31.430Z,58.07
2017-02-16T05:51:40.421Z,58.07
2017-02-16T05:52:49.410Z,57.88
2017-02-16T05:53:58.394Z,58.07
2017-02-16T05:55:07.395Z,57.79
2017-02-16T05:56:16.407Z,58.07
2017-02-16T05:57:25.390Z,58.07
2017-02-16T05:58:34.386Z,57.98
2017-02-16T05:59:43.371Z,58.26
2017-02-16T06:00:52.460Z,58.17
2017-02-16T06:02:01.855Z,57.69
2017-02-16T06:03:10.841Z,57.4
2017-02-16T06:04:19.923Z,57.98
2017-02-16T06:05:29.025Z,57.98
2017-02-16T06:06:38.024Z,58.07
2017-02-16T06:07:47.021Z,58.17
2017-02-16T06:08:56.108Z,58.07
2017-02-16T06:10:05.105Z,58.07
2017-02-16T06:11:14.196Z,57.88
2017-02-16T06:12:23.208Z,58.07
2017-02-16T06:13:32.281Z,57.4
2017-02-16T06:14:41.257Z,58.07
2017-02-16T06:15:50.254Z,58.07
2017-02-16T06:16:59.245Z,58.17
2017-02-16T06:18:08.258Z,57.98
2017-02-16T06:19:17.255Z,57.88
2017-02-16T06:20:26.252Z,58.17
2017-02-16T06:21:35.241Z,57.79
2017-02-16T06:22:44.229Z,57.79
2017-02-16T06:23:53.219Z,57.79
2017-02-16T06:25:02.209Z,57.79
2017-02-16T06:26:11.190Z,57.79
2017-02-16T06:27:20.193Z,57.59
2017-02-16T06:28:29.215Z,57.4
2017-02-16T06:29:38.199Z,57.69
2017-02-16T06:30:47.263Z,57.59
2017-02-16T06:31:56.357Z,57.59
2017-02-16T06:33:05.360Z,57.69
2017-02-16T06:34:14.355Z,57.69
2017-02-16T06:35:23.355Z,58.07
2017-02-16T06:36:32.366Z,58.17
2017-02-16T06:37:41.341Z,57.98
2017-02-16T06:38:50.354Z,57.5
2017-02-16T06:39:59.337Z,57.59
2017-02-16T06:41:08.326Z,57.59
2017-02-16T06:42:17.325Z,57.59
2017-02-16T06:43:26.328Z,57.4
2017-02-16T06:44:35.327Z,57.5
2017-02-16T06:45:44.319Z,57.5
2017-02-16T06:46:53.323Z,57.4
2017-02-16T06:48:02.405Z,57.59
2017-02-16T06:49:11.790Z,57.59
2017-02-16T06:50:20.771Z,57.31
2017-02-16T06:51:29.843Z,57.4
2017-02-16T06:52:38.848Z,57.5
2017-02-16T06:53:47.921Z,57.31
2017-02-16T06:54:56.928Z,57.31
2017-02-16T06:56:05.921Z,57.4
2017-02-16T06:57:14.916Z,57.31
2017-02-16T06:58:23.928Z,57.31
2017-02-16T06:59:32.911Z,57.21
2017-02-16T07:00:41.919Z,57.31
2017-02-16T07:01:50.929Z,57.4
2017-02-16T07:02:59.945Z,57.4
2017-02-16T07:04:08.951Z,57.12
2017-02-16T07:05:17.955Z,57.4
2017-02-16T07:06:27.393Z,57.4
2017-02-16T07:07:36.397Z,57.21
2017-02-16T07:08:45.424Z,57.21
2017-02-16T07:09:54.532Z,57.21
2017-02-16T07:11:03.526Z,57.21
2017-02-16T07:12:12.524Z,57.31
2017-02-16T07:13:21.939Z,57.31
2017-02-16T07:14:30.948Z,57.69
2017-02-16T07:15:39.941Z,57.59
2017-02-16T07:16:48.939Z,57.4
2017-02-16T07:17:57.975Z,57.4
2017-02-16T07:19:07.369Z,57.21
2017-02-16T07:20:16.358Z,57.31
2017-02-16T07:21:25.758Z,57.12
2017-02-16T07:22:36.035Z,57.03
2017-02-16T07:23:47.571Z,57.21
2017-02-16T07:24:57.343Z,57.31
2017-02-16T07:26:07.170Z,57.5
2017-02-16T07:27:19.592Z,57.21
2017-02-16T07:28:30.241Z,57.12
2017-02-16T07:29:39.929Z,56.84
2017-02-16T07:30:48.920Z,56.84
2017-02-16T07:31:57.902Z,56.84
2017-02-16T07:33:07.576Z,56.93
2017-02-16T07:34:16.570Z,56.74
2017-02-16T07:35:26.182Z,56.74
2017-02-16T07:36:35.533Z,56.55
2017-02-16T07:37:45.201Z,56.96
2017-02-16T07:38:54.281Z,56.65
2017-02-16T07:40:04.316Z,56.93
2017-02-16T07:41:15.675Z,56.96
2017-02-16T07:42:25.495Z,56.46
2017-02-16T07:43:35.330Z,56.1
2017-02-16T07:44:44.319Z,56.29
2017-02-16T07:45:53.662Z,56.58
2017-02-16T07:47:04.146Z,56.49
2017-02-16T07:48:13.140Z,56.49
2017-02-16T07:49:22.132Z,56.49
2017-02-16T07:50:31.142Z,56.39
2017-02-16T07:51:40.385Z,56.58
2017-02-16T07:52:50.302Z,56.01
2017-02-16T07:53:59.571Z,55.82
2017-02-16T07:55:10.105Z,55.82
2017-02-16T07:56:19.429Z,56.2
2017-02-16T07:57:29.917Z,55.82
2017-02-16T07:58:39.144Z,55.91
2017-02-16T07:59:49.506Z,56.01
2017-02-16T08:00:58.488Z,55.91
2017-02-16T08:02:08.675Z,56.1
2017-02-16T08:03:17.838Z,55.73
2017-02-16T08:04:28.330Z,55.54
2017-02-16T08:05:38.731Z,55.54
2017-02-16T08:06:48.494Z,55.54
2017-02-16T08:07:57.830Z,55.25
2017-02-16T08:09:08.591Z,55.35
2017-02-16T08:10:17.617Z,55.35
2017-02-16T08:11:27.223Z,55.25
2017-02-16T08:12:37.310Z,55.25
2017-02-16T08:13:46.929Z,55.35
2017-02-16T08:14:56.494Z,55.16
2017-02-16T08:16:06.393Z,55.25
2017-02-16T08:17:15.704Z,54.97
2017-02-16T08:18:26.114Z,54.97
2017-02-16T08:19:36.274Z,54.97
2017-02-16T08:20:45.949Z,55.28
2017-02-16T08:21:56.273Z,55.28
2017-02-16T08:23:05.877Z,55.18
2017-02-16T08:24:15.484Z,55.18
2017-02-16T08:25:24.475Z,55.47
2017-02-16T08:26:33.470Z,54.71
2017-02-16T08:27:42.469Z,54.8
2017-02-16T08:28:51.549Z,54.99
2017-02-16T08:30:00.537Z,54.9
2017-02-16T08:31:09.557Z,54.61
2017-02-16T08:32:18.550Z,54.05
2017-02-16T08:33:27.556Z,54.24
2017-02-16T08:34:36.558Z,53.95
2017-02-16T08:35:45.658Z,54.14
2017-02-16T08:36:54.643Z,54.43
2017-02-16T08:38:03.632Z,54.14
2017-02-16T08:39:12.621Z,53.85
2017-02-16T08:40:21.622Z,53.66
2017-02-16T08:41:30.855Z,53.95
2017-02-16T08:42:39.850Z,53.76
2017-02-16T08:43:48.839Z,53.85
2017-02-16T08:44:57.923Z,53.69
2017-02-16T08:46:06.924Z,53.97
2017-02-16T08:47:15.910Z,54.07
2017-02-16T08:48:24.985Z,53.59
2017-02-16T08:49:33.975Z,53.5
2017-02-16T08:50:42.975Z,53.5
2017-02-16T08:51:51.961Z,53.59
2017-02-16T08:53:01.363Z,53.69
2017-02-16T08:54:12.029Z,53.59
2017-02-16T08:55:21.035Z,53.59
2017-02-16T08:56:30.073Z,53.41
2017-02-16T08:57:39.072Z,53.31
2017-02-16T08:58:48.141Z,53.59
2017-02-16T08:59:57.154Z,53.59
2017-02-16T09:01:06.250Z,53.59
2017-02-16T09:02:15.265Z,53.69
2017-02-16T09:03:24.430Z,53.22
2017-02-16T09:04:35.358Z,53.41
2017-02-16T09:05:46.923Z,52.67
2017-02-16T09:06:58.103Z,52.84
2017-02-16T09:08:08.249Z,52.86
2017-02-16T09:09:19.117Z,53.15
2017-02-16T09:10:28.115Z,52.96
2017-02-16T09:11:37.103Z,52.29
2017-02-16T09:12:46.280Z,52.58
2017-02-16T09:13:55.283Z,52.39
2017-02-16T09:15:04.277Z,52.48
2017-02-16T09:16:13.268Z,52.67
2017-02-16T09:17:22.254Z,52.67
2017-02-16T09:18:31.251Z,52.22
2017-02-16T09:19:40.335Z,52.13
2017-02-16T09:20:49.329Z,52.22
2017-02-16T09:21:58.324Z,52.22
2017-02-16T09:23:07.325Z,52.03
2017-02-16T09:24:16.330Z,52.41
2017-02-16T09:25:25.332Z,52.41
2017-02-16T09:26:34.330Z,52.89
2017-02-16T09:27:43.760Z,52.89
2017-02-16T09:28:52.755Z,52.8
2017-02-16T09:30:01.842Z,52.51
2017-02-16T09:31:11.250Z,52.89
2017-02-16T09:32:20.340Z,52.89
2017-02-16T09:33:29.423Z,52.61
2017-02-16T09:34:38.665Z,52.8
2017-02-16T09:35:48.499Z,52.32
2017-02-16T09:36:57.938Z,52.41
2017-02-16T09:38:07.508Z,52.89
2017-02-16T09:39:18.042Z,52.89
2017-02-16T09:40:29.689Z,52.8
2017-02-16T09:41:39.321Z,52.7
2017-02-16T09:42:49.970Z,52.8
2017-02-16T09:44:00.488Z,52.7
2017-02-16T09:45:10.071Z,52.51
2017-02-16T09:46:19.693Z,52.22
2017-02-16T09:47:29.308Z,51.93
2017-02-16T09:48:38.898Z,52.8
2017-02-16T09:49:48.578Z,52.13
2017-02-16T09:50:57.762Z,52.06
2017-02-16T09:52:07.754Z,52.15
2017-02-16T09:53:17.716Z,52.15
2017-02-16T09:54:27.136Z,52.25
2017-02-16T09:55:36.140Z,51.97
2017-02-16T09:56:45.139Z,51.97
2017-02-16T09:57:54.160Z,51.97
2017-02-16T09:59:03.285Z,51.78
2017-02-16T10:00:12.288Z,51.97
2017-02-16T10:01:21.299Z,52.34
2017-02-16T10:02:30.667Z,52.34
2017-02-16T10:03:40.226Z,52.34
2017-02-16T10:04:50.061Z,52.72
2017-02-16T10:06:00.091Z,52.82
2017-02-16T10:07:10.834Z,53.11
2017-02-16T10:08:20.131Z,52.72
2017-02-16T10:09:30.414Z,53.58
2017-02-16T10:10:39.851Z,53.49
2017-02-16T10:11:49.029Z,53.58
2017-02-16T10:12:58.736Z,54.06
2017-02-16T10:14:09.167Z,53.77
2017-02-16T10:15:18.164Z,53.89
2017-02-16T10:16:28.684Z,54.27
2017-02-16T10:17:38.241Z,53.89
2017-02-16T10:18:47.719Z,54.18
2017-02-16T10:19:57.156Z,53.8
2017-02-16T10:21:07.131Z,54.47
2017-02-16T10:23:11.938Z,54.08
2017-02-16T10:24:22.633Z,54.27
2017-02-16T10:25:31.636Z,54.27
2017-02-16T10:26:42.429Z,54.37
2017-02-16T10:27:52.040Z,54.37
2017-02-16T10:29:01.733Z,54.56
2017-02-16T10:30:11.661Z,54.47
2017-02-16T10:31:20.907Z,54.37
2017-02-16T10:32:31.006Z,54.08
2017-02-16T10:33:40.928Z,54.39
2017-02-16T10:34:51.294Z,54.39
2017-02-16T10:36:00.298Z,54.37
2017-02-16T10:37:09.299Z,54.21
2017-02-16T10:38:18.721Z,54.39
2017-02-16T10:39:27.718Z,54.68
2017-02-16T10:40:36.806Z,54.68
2017-02-16T10:41:45.792Z,55.16
2017-02-16T10:42:54.813Z,55.07
2017-02-16T10:44:03.832Z,54.88
2017-02-16T10:45:12.843Z,54.39
2017-02-16T10:46:21.834Z,54.59
2017-02-16T10:47:30.832Z,54.97
2017-02-16T10:48:39.814Z,54.49
2017-02-16T10:49:48.800Z,54.49
2017-02-16T10:50:58.215Z,54.21
2017-02-16T10:52:07.208Z,54.21
2017-02-16T10:53:16.214Z,54.3
2017-02-16T10:54:25.216Z,54.39
2017-02-16T10:55:34.225Z,54.71
2017-02-16T10:56:43.641Z,54.97
2017-02-16T10:57:52.632Z,55
2017-02-16T10:59:01.651Z,54.61
2017-02-16T11:00:10.761Z,54.71
2017-02-16T11:01:19.796Z,55.09
2017-02-16T11:02:29.196Z,54.43
2017-02-16T11:03:38.195Z,54.61
2017-02-16T11:04:48.344Z,54.61
2017-02-16T11:05:57.369Z,54.71
2017-02-16T11:07:07.766Z,54.52
2017-02-16T11:08:17.386Z,54.71
2017-02-16T11:09:27.101Z,54.61
2017-02-16T11:10:36.878Z,54.71
2017-02-16T11:11:46.215Z,54.61
2017-02-16T11:12:55.804Z,54.43
2017-02-16T11:14:05.125Z,54.64
2017-02-16T11:15:15.873Z,54.17
2017-02-16T11:16:25.070Z,54.43
2017-02-16T11:17:34.460Z,54.93
2017-02-16T11:18:43.805Z,54.9
2017-02-16T11:19:53.658Z,54.93
2017-02-16T11:21:04.186Z,55.12
2017-02-16T11:22:13.803Z,55.21
2017-02-16T11:23:24.200Z,55.69
2017-02-16T11:24:34.313Z,55.69
2017-02-16T11:25:44.025Z,56.46
2017-02-16T11:26:53.023Z,56.36
2017-02-16T11:28:02.759Z,56.36
2017-02-16T11:29:11.919Z,56.26
2017-02-16T11:30:21.731Z,56.36
2017-02-16T11:31:31.284Z,56.36
2017-02-16T11:32:41.121Z,56.36
2017-02-16T11:33:50.500Z,56.36
2017-02-16T11:35:00.274Z,56.36
2017-02-16T11:36:09.347Z,56.26
2017-02-16T11:37:19.191Z,56.36
2017-02-16T11:38:28.654Z,56.46
2017-02-16T11:39:37.712Z,56.26
2017-02-16T11:40:47.317Z,56.36
2017-02-16T11:41:56.778Z,55.79
2017-02-16T11:43:05.958Z,55.88
2017-02-16T11:44:15.943Z,55.69
2017-02-16T11:45:32.719Z,55.79
2017-02-16T11:46:41.712Z,55.69
2017-02-16T11:47:50.707Z,55.41
2017-02-16T11:48:59.735Z,55.02
2017-02-16T11:50:08.738Z,55.12
2017-02-16T11:51:17.742Z,55.05
2017-02-16T11:52:26.928Z,55.15
2017-02-16T11:53:35.914Z,54.96
2017-02-16T11:54:44.922Z,55.05
2017-02-16T11:55:53.950Z,54.67
2017-02-16T11:57:02.947Z,54.19
2017-02-16T11:58:11.931Z,54.57
2017-02-16T11:59:20.931Z,54.29
2017-02-16T12:00:29.945Z,54.48
2017-02-16T12:01:38.999Z,54.38
2017-02-16T12:02:48.039Z,54.38
2017-02-16T12:03:57.126Z,54.48
2017-02-16T12:05:06.146Z,54.67
2017-02-16T12:06:15.137Z,54.67
2017-02-16T12:07:24.132Z,54.77
2017-02-16T12:08:33.135Z,54.67
2017-02-16T12:09:42.120Z,55.15
2017-02-16T12:10:51.113Z,55.08
2017-02-16T12:12:00.146Z,55.05
2017-02-16T12:13:09.143Z,55.15
2017-02-16T12:14:18.135Z,55.18
2017-02-16T12:15:27.117Z,55.53
2017-02-16T12:16:37.061Z,55.34
2017-02-16T12:17:46.094Z,55.27
2017-02-16T12:18:55.171Z,55.08
2017-02-16T12:20:04.156Z,55.36
2017-02-16T12:21:13.170Z,55.46
2017-02-16T12:22:22.589Z,55.18
2017-02-16T12:23:31.679Z,54.79
2017-02-16T12:24:40.676Z,54.89
2017-02-16T12:25:49.691Z,55.55
2017-02-16T12:26:58.787Z,55.27
2017-02-16T12:28:07.786Z,55.46
2017-02-16T12:29:16.798Z,55.27
2017-02-16T12:30:25.888Z,55.55
2017-02-16T12:31:34.901Z,55.36
2017-02-16T12:32:45.009Z,55.36
2017-02-16T12:33:54.010Z,55.27
2017-02-16T12:35:03.013Z,55.46
2017-02-16T12:36:12.023Z,55.55
2017-02-16T12:37:21.543Z,55.46
2017-02-16T12:38:31.256Z,55.55
2017-02-16T12:39:41.504Z,55.27
2017-02-16T12:40:50.940Z,55.46
2017-02-16T12:42:00.583Z,55.55
2017-02-16T12:43:10.328Z,55.55
2017-02-16T12:44:19.566Z,55.55
2017-02-16T12:45:28.801Z,55.65
2017-02-16T12:46:38.490Z,55.36
2017-02-16T12:47:48.799Z,55.18
2017-02-16T12:48:58.111Z,55.36
2017-02-16T12:50:07.099Z,55.46
2017-02-16T12:51:16.921Z,55.18
2017-02-16T12:52:26.019Z,54.89
2017-02-16T12:53:35.905Z,55.08
2017-02-16T12:54:45.207Z,55.08
2017-02-16T12:55:55.330Z,55.18
2017-02-16T12:57:04.326Z,54.89
2017-02-16T12:58:14.206Z,55.55
2017-02-16T12:59:24.128Z,55.65
2017-02-16T13:00:33.122Z,55.65
2017-02-16T13:01:42.695Z,55.46
2017-02-16T13:02:52.632Z,55.49
2017-02-16T13:04:03.702Z,55.65
2017-02-16T13:05:13.057Z,55.36
2017-02-16T13:06:22.137Z,54.99
2017-02-16T13:07:31.125Z,54.82
2017-02-16T13:08:40.200Z,55.11
2017-02-16T13:09:49.202Z,54.82
2017-02-16T13:10:58.201Z,54.82
2017-02-16T13:12:07.194Z,54.53
2017-02-16T13:13:16.195Z,54.44
2017-02-16T13:14:25.200Z,54.82
2017-02-16T13:15:34.180Z,54.72
2017-02-16T13:16:43.582Z,54.34
2017-02-16T13:17:53.082Z,54.63
2017-02-16T13:19:02.080Z,54.44
2017-02-16T13:20:11.068Z,54.53
2017-02-16T13:21:20.652Z,54.72
2017-02-16T13:22:29.668Z,54.53
2017-02-16T13:23:38.665Z,53.86
2017-02-16T13:24:47.697Z,54.15
2017-02-16T13:25:56.766Z,54.25
2017-02-16T13:27:05.758Z,53.86
2017-02-16T13:28:15.157Z,53.77
2017-02-16T13:29:24.149Z,53.86
2017-02-16T13:30:33.151Z,53.86
2017-02-16T13:31:42.599Z,53.67
2017-02-16T13:32:53.746Z,53.29
2017-02-16T13:34:02.745Z,53.39
2017-02-16T13:35:11.776Z,53.58
2017-02-16T13:36:20.860Z,53.77
2017-02-16T13:37:30.086Z,53.58
2017-02-16T13:38:39.161Z,53.39
2017-02-16T13:39:49.730Z,53.86
2017-02-16T13:40:59.040Z,53.77
2017-02-16T13:42:10.029Z,53
2017-02-16T13:43:21.362Z,53.1
2017-02-16T13:44:37.341Z,53.2
2017-02-16T13:45:55.582Z,53.39
2017-02-16T13:47:12.925Z,53.29
2017-02-16T13:48:30.499Z,53.39
2017-02-16T13:49:47.183Z,53.39
2017-02-16T13:51:03.696Z,52.81
2017-02-16T13:52:16.264Z,52.81
2017-02-16T13:53:26.430Z,52.62
2017-02-16T13:54:40.906Z,52.62
2017-02-16T13:56:01.373Z,52.84
2017-02-16T13:57:17.848Z,52.94
2017-02-16T13:58:30.829Z,52.84
2017-02-16T13:59:39.990Z,52.94
2017-02-16T14:00:49.029Z,52.72
2017-02-16T14:02:02.504Z,52.94
2017-02-16T14:03:22.364Z,53
2017-02-16T14:04:45.528Z,52.72
2017-02-16T14:06:07.796Z,52.75
2017-02-16T14:07:24.275Z,52.72
2017-02-16T14:08:33.678Z,52.62
2017-02-16T14:09:42.805Z,52.53
2017-02-16T14:10:51.884Z,53
2017-02-16T14:12:00.876Z,52.81
2017-02-16T14:13:10.237Z,52.91
2017-02-16T14:14:19.852Z,53
2017-02-16T14:15:31.794Z,52.91
2017-02-16T14:16:48.163Z,52.62
2017-02-16T14:18:03.524Z,52.81
2017-02-16T14:19:17.496Z,53
2017-02-16T14:20:33.968Z,53.1
2017-02-16T14:21:51.404Z,53.2
2017-02-16T14:23:11.489Z,53.29
2017-02-16T14:24:31.613Z,53.29
2017-02-16T14:25:48.727Z,52.81
2017-02-16T14:27:05.949Z,53
2017-02-16T14:28:21.106Z,53.2
2017-02-16T14:29:34.229Z,53.2
2017-02-16T14:30:44.289Z,53.1
2017-02-16T14:31:53.273Z,53.2
2017-02-16T14:33:02.360Z,53.58
2017-02-16T14:34:11.349Z,53.58
2017-02-16T14:35:20.336Z,53.77
2017-02-16T14:36:29.494Z,53.67
2017-02-16T14:37:41.183Z,53.86
2017-02-16T14:38:53.294Z,53.67
2017-02-16T14:40:03.861Z,53.96
2017-02-16T14:41:13.306Z,54.15
2017-02-16T14:42:23.369Z,53.67
2017-02-16T14:43:34.374Z,53.86
2017-02-16T14:44:43.742Z,53.67
2017-02-16T14:45:53.486Z,53.96
2017-02-16T14:47:02.826Z,53.77
2017-02-16T14:48:12.351Z,53.77
2017-02-16T14:49:21.358Z,54.15
2017-02-16T14:50:30.339Z,53.86
2017-02-16T14:51:39.421Z,54.15
2017-02-16T14:52:48.418Z,54.53
2017-02-16T14:53:57.400Z,54.53
2017-02-16T14:55:06.384Z,54.44
2017-02-16T14:56:15.361Z,54.32
2017-02-16T14:57:24.347Z,54.79
2017-02-16T14:58:33.343Z,55.11
2017-02-16T14:59:42.340Z,55.08